Cotter, AR (72626)

12:06 AM CDT on May 01, 2017 (GMT -0500)
MC 7061 | | Change Station

Elev 673 ft 36.26 °N, 92.61 °W | Updated 5 seconds ago

Mostly Cloudy
Mostly Cloudy
52.7 °F
Feels Like 52.7 °F
N
3.6
Wind Variable Wind from SSW
Gusts 4.9 mph

Today
High -- | Low -- °F
--% Chance of Precip.
Yesterday
High -- | Low -- °F
Precip. -- in
Pressure 29.61 in
Visibility 10.0 miles
Clouds Mostly Cloudy 6000 ft
Dew Point 36 °F
Humidity 53%
Rainfall 0.00 in
Snow Depth Not available.
6:16 AM 7:58 PM
Waxing Crescent, 29% visible
METAR KBPK 010453Z AUTO 26010G24KT 240V320 10SM BKN060 11/01 A2963 RMK AO2 SLP027 T01060011 $
Pressure 29.61 in
Visibility 10.0 miles
Clouds Mostly Cloudy 6000 ft
Dew Point 36 °F
Humidity 53%
Rainfall 0.00 in
Snow Depth Not available.
6:16 AM 7:58 PM
Waxing Crescent, 29% visible
METAR KBPK 010453Z AUTO 26010G24KT 240V320 10SM BKN060 11/01 A2963 RMK AO2 SLP027 T01060011 $

Get Severe Weather Alerts

Thanks for signing up!

Be on the lookout for a verification email in your inbox.

You'll start receiving the daily forecast at 8 AM.

×

10-Day Weather Forecast

Almanac

Astronomy

May. 01, 2017 Rise Set
Actual Time
Civil Twilight
Nautical Twilight
Astronomical Twilight
Moon
Length of Visible Light
Length of Day
Tomorrow will be .
, % of the Moon is Illuminated

Today's Extremes

State Highs State Lows

Community

WunderPhotos

WunderBlog® & News

Nearby

Air Quality

  Air Quality AQ Index Pollutant
Not available.

Snow Depth

Station Depth Elevation

Earthquake Activity

City Distance Mag. Time & Date
Minimum magnitude displayed is 2.5.

Coastal Water Temperatures

Place Temperature

Stations

Nearby Weather Stations

Station Location Temp. Windchill Dew Point Humidity Wind Precip. Elev Updated Type
                   

Watches & Warnings

There are currently no watches in effect.